Ana Sayfa
METAR-TAF:

METAR-TAF

Havaalanları :

Koror, Babeldaob, Palau

Enlem: 07-22N, Boylam: 134-32E, yükseklik: 54 m

Güncel hava durumu gözlemi

Rapor saat 21:52 UTC de 43 dakika önce yapıldı.
Sakin rüzgar
Sıcaklık 26°C
Nem 94%
Basınç 1011 hPa
Görüş mesafesi: 22.5 km
1600 ft yükseklikte parçalı bulutlu
12000 ft yükseklikte parçalı çok bulutlu
30000 ft yükseklikte parçalı çok bulutlu

METAR: PTRO 212152Z 00000KT 14SM SCT016 BKN120 BKN300 26/25 A2985

Saat: 07:35 (22:35 UTC)

Tahmin

Rapor saat 17:28 UTC de 5 saat ve 7 dakika önce yapıldı.
Ayın 21'si saat 18 UTC'den ayın 22'si saat 18 UTC'ye kadar geçerli Tahmin
Rüzgar doğudan 7 kt
Görüş mesafesi: 10 km
1600 ft yükseklikte parçalı bulutlu
12000 ft yükseklikte parçalı bulutlu
Civarda sağanaklar

TAF: PTRO 211728Z 2118/2218 08007KT P6SM VCSH SCT016 SCT120

4.000'den fazla havaalanı için hava durumu gözlemleri ve tahminleri (METAR ve TAF raporları).

Kullanılabilir istasyonlar harita üzerinde sarı ve kırmızı noktalarla gösterilir.

İstasyonun adını görmek için fareyi noktanın üzerinde gezdirin.

Sonrasında hava gözlem ve tahminlerini görmek için tıklayın.

Haritayı değiştirmek için: yaklaştırmak için siyah artı işaretli yeşil düğmeye ve uzaklaştırmak için de eksi işaretli düğmeye hızla tıklayın; bitişik haritalar için yeşil okları kullanın.


METAR-TAF: